Thousand Palms, CA (92276)

2:36 AM PDT on April 01, 2015 (GMT -0700)
DesertWeather com | Change Station
CLOSE
Current Station
Personal Weather Station
Location: Thousand Palms, CA
Elevation: 275 ft
Nearby Weather Stations
Active Advisory: Wind Advisory

Elev 275 ft 33.82 °N, 116.40 °W | Updated 7 seconds ago

Clear
Clear
71.6 °F
Feels Like 77 °F
N
14.1
Wind Variable Wind from WNW
Gusts 20.7 mph

Today
High -- | Low -- °F
--% Chance of Precip.
Yesterday
High -- | Low -- °F
Precip. -- in
6:33 AM 7:06 PM
Waxing Gibbous, 91% visible
Pressure 29.82 in
Visibility 10.0 miles
Clouds Clear
Heat Index 77 °F
Dew Point 42 °F
Humidity 34%
Rainfall 0.00 in
Snow Depth Not available.
UV 0 out of 12
Pollen 9.50 out of 12
Ozone Good
PM10 Good
Flu Activity Local Activity
METAR KPSP 010853Z 16007KT 10SM CLR 21/03 A2983 RMK AO2 SLP098 T02060033 51007

More Conditions Fewer Conditions

Pressure 29.82 in
Visibility 10.0 miles
Clouds Clear
Heat Index 77 °F
Dew Point 42 °F
Humidity 34%
Rainfall 0.00 in
Snow Depth Not available.
UV 0 out of 12
Pollen 9.50 out of 12
Ozone Good
PM10 Good
Flu Activity Local Activity
METAR KPSP 010853Z 16007KT 10SM CLR 21/03 A2983 RMK AO2 SLP098 T02060033 51007

More Conditions Fewer Conditions

10-Day Weather Forecast

Almanac

Astronomy

Apr. 01, 2015 Rise Set
Actual Time 6:33 AM PDT 7:06 PM PDT
Civil Twilight 6:08 AM PDT 7:31 PM PDT
Nautical Twilight 5:38 AM PDT 8:00 PM PDT
Astronomical Twilight 5:08 AM PDT 8:30 PM PDT
Moon 4:55 PM PDT 4:59 AM PDT
Length of Visible Light 13h 23m
Length of Day
12h 32m
Tomorrow will be 2m 6s longer.
Waxing Gibbous, 91% of the Moon is Illuminated
Today
Waxing Gibbous
Apr 4
Full
Apr 11
Last Quarter
Apr 18
New
Apr 25
First Quarter

Today's Extremes

State Highs State Lows

Community

WunderPhotos

Upload Photos

1,809,933 photos uploaded!

WunderBlogs® & News

Nearby

Air Quality

  Air Quality AQ Index Pollutant
Yesterday Moderate
OZONE
Yesterday Good
PM10
Current Good
OZONE
Current Good
PM10
Wednesday Moderate
OZONE
Wednesday Good
PM10
Wednesday Good
CO
Wednesday Good
NO2

Snow Depth

Station Depth Elevation
Virginia Lakes Ridge 8 in 9200 ft
Leavitt Lake 57 in 9400 ft
Leavitt Meadows 1 in 7200 ft
Sonora Pass 10 in 8800 ft
Summit Meadow 2 in 9122 ft

Earthquake Activity

City Distance Mag. Time & Date
Weldon, California 167 miles 2.8 4:29 AM PDT
2015-03-30
Baker, California 67 miles 4.0 2:21 AM PDT
2015-03-30
Minimum magnitude displayed is 2.5.

Coastal Water Temperatures

Place Temperature
No Stations Reporting

Nearby Weather Stations